createdAt,value
2023-02-19T00:01:53.553Z,70.28
2023-02-19T00:04:23.973Z,70.33
2023-02-19T00:06:52.593Z,70.68
2023-02-19T00:09:22.177Z,70.72
2023-02-19T00:11:50.787Z,70.84
2023-02-19T00:14:20.640Z,71.02
2023-02-19T00:16:49.240Z,71.07
2023-02-19T00:19:20.152Z,71.27
2023-02-19T00:21:50.533Z,71.23
2023-02-19T00:24:19.088Z,71.38
2023-02-19T00:26:49.751Z,71.41
2023-02-19T00:29:21.409Z,71.36
2023-02-19T00:31:49.647Z,71.50
2023-02-19T00:34:17.958Z,71.35
2023-02-19T00:36:46.355Z,71.23
2023-02-19T00:39:16.149Z,71.10
2023-02-19T00:41:44.546Z,71.08
2023-02-19T00:44:13.188Z,71.10
2023-02-19T00:46:43.423Z,71.08
2023-02-19T00:49:22.698Z,71.23
2023-02-19T00:51:54.840Z,71.19
2023-02-19T00:54:26.299Z,71.36
2023-02-19T00:56:57.845Z,71.50
2023-02-19T00:59:33.350Z,71.52
2023-02-19T01:02:04.860Z,71.69
2023-02-19T01:04:35.872Z,71.73
2023-02-19T01:07:07.923Z,71.89
2023-02-19T01:09:40.730Z,71.93
2023-02-19T01:12:13.312Z,71.99
2023-02-19T01:14:44.185Z,72.05
2023-02-19T01:17:17.466Z,72.19
2023-02-19T01:19:48.845Z,72.05
2023-02-19T01:22:20.966Z,72.15
2023-02-19T01:24:51.672Z,72.08
2023-02-19T01:27:22.464Z,71.99
2023-02-19T01:29:54.383Z,72.04
2023-02-19T01:32:26.885Z,72.25
2023-02-19T01:34:57.560Z,72.21
2023-02-19T01:37:28.901Z,72.41
2023-02-19T01:40:06.329Z,72.55
2023-02-19T01:42:37.938Z,72.73
2023-02-19T01:45:47.864Z,72.77
2023-02-19T01:54:44.873Z,73.12
2023-02-19T01:57:16.606Z,73.13
2023-02-19T01:59:44.765Z,73.02
2023-02-19T02:02:13.209Z,72.97
2023-02-19T02:04:41.419Z,72.98
2023-02-19T02:07:30.299Z,72.96
2023-02-19T02:10:18.192Z,73.05
2023-02-19T02:12:51.754Z,73.09
2023-02-19T02:15:24.241Z,73.16
2023-02-19T02:18:30.552Z,73.33
2023-02-19T02:21:03.886Z,73.45
2023-02-19T02:24:05.087Z,73.61
2023-02-19T02:26:45.728Z,73.69
2023-02-19T02:30:01.255Z,73.84
2023-02-19T02:32:36.886Z,73.76
2023-02-19T02:35:10.388Z,73.69
2023-02-19T02:37:40.957Z,73.59
2023-02-19T02:40:09.940Z,73.71
2023-02-19T02:42:39.608Z,73.47
2023-02-19T02:45:38.214Z,73.55
2023-02-19T02:48:41.263Z,73.64
2023-02-19T02:51:26.409Z,73.94
2023-02-19T02:54:27.823Z,74.04
2023-02-19T02:56:56.479Z,74.12
2023-02-19T02:59:26.320Z,74.42
2023-02-19T03:02:12.058Z,74.55
2023-02-19T03:05:06.655Z,74.70
2023-02-19T03:07:42.104Z,74.88
2023-02-19T03:10:12.459Z,75.10
2023-02-19T03:13:00.181Z,75.33
2023-02-19T03:15:51.212Z,75.56
2023-02-19T03:18:38.859Z,75.74
2023-02-19T03:21:07.341Z,76.05
2023-02-19T03:23:54.327Z,76.34
2023-02-19T03:26:22.764Z,76.58
2023-02-19T03:29:11.814Z,76.90
2023-02-19T03:31:42.650Z,76.98
2023-02-19T03:34:14.559Z,77.20
2023-02-19T03:36:55.784Z,77.34
2023-02-19T03:39:24.183Z,77.49
2023-02-19T03:41:55.648Z,77.63
2023-02-19T03:44:46.064Z,77.62
2023-02-19T03:47:27.781Z,77.95
2023-02-19T03:49:59.206Z,78.04
2023-02-19T03:52:37.430Z,77.92
2023-02-19T03:55:32.332Z,77.82
2023-02-19T03:58:19.897Z,77.49
2023-02-19T04:00:51.431Z,77.42
2023-02-19T04:03:42.167Z,77.48
2023-02-19T04:06:14.968Z,77.57
2023-02-19T04:08:47.293Z,77.68
2023-02-19T04:11:16.385Z,77.72
2023-02-19T04:13:46.798Z,77.95
2023-02-19T04:16:20.775Z,78.07
2023-02-19T04:18:54.636Z,78.23
2023-02-19T04:21:23.345Z,78.27
2023-02-19T04:23:52.377Z,78.41
2023-02-19T04:26:20.708Z,78.47
2023-02-19T04:28:48.929Z,78.56
2023-02-19T04:31:18.658Z,78.70
2023-02-19T04:33:46.941Z,78.78
2023-02-19T04:36:14.833Z,79.06
2023-02-19T04:38:42.916Z,79.34
2023-02-19T04:41:13.518Z,79.51
2023-02-19T04:43:42.996Z,79.50
2023-02-19T04:46:12.646Z,79.62
2023-02-19T04:48:43.158Z,79.59
2023-02-19T04:51:11.861Z,79.56
2023-02-19T04:53:40.436Z,79.41
2023-02-19T04:56:09.570Z,79.47
2023-02-19T04:58:39.631Z,79.34
2023-02-19T05:01:07.883Z,79.27
2023-02-19T05:03:35.929Z,79.06
2023-02-19T05:06:09.716Z,79.03
2023-02-19T05:08:38.054Z,78.89
2023-02-19T05:11:07.271Z,78.88
2023-02-19T05:13:38.458Z,79.13
2023-02-19T05:16:13.878Z,79.51
2023-02-19T05:18:43.147Z,79.85
2023-02-19T05:21:11.754Z,80.23
2023-02-19T05:23:40.427Z,80.78
2023-02-19T05:26:09.784Z,81.25
2023-02-19T05:28:39.505Z,81.69
2023-02-19T05:31:08.660Z,81.91
2023-02-19T05:33:38.226Z,81.94
2023-02-19T05:36:13.361Z,82.21
2023-02-19T05:38:42.627Z,82.18
2023-02-19T05:41:18.603Z,82.26
2023-02-19T05:43:47.617Z,82.48
2023-02-19T05:46:17.157Z,82.45
2023-02-19T05:48:45.489Z,82.41
2023-02-19T05:51:15.915Z,82.40
2023-02-19T05:53:44.437Z,82.33
2023-02-19T05:56:27.548Z,81.97
2023-02-19T05:58:55.821Z,81.41
2023-02-19T06:01:26.824Z,81.21
2023-02-19T06:03:57.358Z,80.93
2023-02-19T06:06:26.103Z,80.80
2023-02-19T06:08:54.734Z,80.83
2023-02-19T06:11:22.876Z,81.06
2023-02-19T06:13:51.774Z,81.34
2023-02-19T06:16:22.067Z,81.55
2023-02-19T06:18:55.721Z,81.52
2023-02-19T06:21:23.809Z,81.62
2023-02-19T06:23:52.052Z,81.44
2023-02-19T06:26:22.439Z,81.35
2023-02-19T06:28:51.726Z,81.14
2023-02-19T06:31:20.837Z,81.06
2023-02-19T06:33:50.792Z,80.83
2023-02-19T06:36:19.921Z,80.65
2023-02-19T06:38:48.052Z,80.46
2023-02-19T06:41:21.068Z,80.32
2023-02-19T06:43:49.833Z,80.02
2023-02-19T06:46:18.592Z,79.73
2023-02-19T06:48:47.066Z,79.53
2023-02-19T06:51:18.609Z,79.39
2023-02-19T06:53:46.784Z,79.06
2023-02-19T06:56:22.749Z,79.07
2023-02-19T06:58:52.273Z,78.98
2023-02-19T07:01:21.322Z,78.82
2023-02-19T07:03:52.805Z,78.69
2023-02-19T07:06:21.986Z,78.48
2023-02-19T07:08:54.063Z,78.22
2023-02-19T07:11:22.182Z,77.94
2023-02-19T07:14:00.689Z,77.98
2023-02-19T07:16:29.502Z,77.91
2023-02-19T07:18:58.155Z,77.80
2023-02-19T07:21:31.389Z,78.01
2023-02-19T07:24:00.399Z,77.90
2023-02-19T07:26:34.437Z,77.74
2023-02-19T07:29:02.603Z,77.61
2023-02-19T07:31:30.810Z,77.58
2023-02-19T07:33:58.963Z,77.47
2023-02-19T07:36:26.977Z,77.31
2023-02-19T07:38:56.393Z,77.55
2023-02-19T07:41:24.844Z,77.41
2023-02-19T07:43:54.233Z,77.55
2023-02-19T07:46:22.716Z,77.42
2023-02-19T07:48:51.005Z,77.29
2023-02-19T07:51:20.107Z,77.16
2023-02-19T07:53:50.276Z,76.98
2023-02-19T07:56:18.967Z,77.16
2023-02-19T07:58:46.990Z,77.32
2023-02-19T08:02:01.486Z,77.07
2023-02-19T08:04:29.962Z,77.11
2023-02-19T08:06:58.427Z,77.30
2023-02-19T08:09:26.790Z,77.17
2023-02-19T08:12:20.658Z,77.18
2023-02-19T08:14:49.247Z,77.13
2023-02-19T08:17:17.608Z,77.24
2023-02-19T08:19:45.814Z,76.90
2023-02-19T08:22:16.355Z,76.31
2023-02-19T08:24:45.118Z,76.77
2023-02-19T08:27:13.124Z,77.01
2023-02-19T08:29:41.230Z,77.06
2023-02-19T08:32:09.936Z,76.98
2023-02-19T08:34:38.425Z,76.73
2023-02-19T08:37:06.434Z,76.11
2023-02-19T08:39:34.879Z,75.56
2023-02-19T08:42:03.846Z,75.36
2023-02-19T08:44:33.006Z,75.53
2023-02-19T08:47:02.576Z,74.95
2023-02-19T08:49:32.568Z,74.62
2023-02-19T08:52:00.782Z,73.98
2023-02-19T08:54:30.222Z,73.39
2023-02-19T08:56:58.502Z,72.53
2023-02-19T08:59:29.085Z,72.36
2023-02-19T09:02:00.455Z,72.31
2023-02-19T09:04:28.906Z,72.75
2023-02-19T09:06:57.206Z,72.80
2023-02-19T09:09:25.410Z,72.75
2023-02-19T09:11:53.422Z,72.89
2023-02-19T09:14:24.100Z,73.39
2023-02-19T09:16:52.300Z,72.73
2023-02-19T09:19:20.473Z,72.98
2023-02-19T09:21:48.994Z,72.98
2023-02-19T09:24:17.240Z,73.03
2023-02-19T09:26:45.244Z,72.75
2023-02-19T09:29:15.918Z,72.59
2023-02-19T09:31:44.622Z,72.07
2023-02-19T09:34:12.943Z,71.50
2023-02-19T09:36:40.992Z,71.38
2023-02-19T09:39:10.541Z,71.38
2023-02-19T09:41:45.479Z,71.12
2023-02-19T09:44:18.315Z,71.38
2023-02-19T09:46:48.135Z,71.58
2023-02-19T09:49:33.861Z,71.52
2023-02-19T09:52:07.319Z,71.39
2023-02-19T09:54:35.379Z,70.96
2023-02-19T09:57:04.367Z,70.64
2023-02-19T09:59:41.297Z,70.61
2023-02-19T10:02:19.993Z,70.88
2023-02-19T10:04:48.630Z,70.96
2023-02-19T10:07:25.090Z,71.08
2023-02-19T10:10:20.507Z,71.18
2023-02-19T10:12:54.185Z,71.09
2023-02-19T10:16:00.958Z,71.22
2023-02-19T10:18:32.285Z,71.49
2023-02-19T10:21:00.618Z,71.56
2023-02-19T10:23:30.148Z,71.63
2023-02-19T10:25:59.109Z,71.80
2023-02-19T10:28:29.258Z,71.90
2023-02-19T10:30:58.984Z,72.05
2023-02-19T10:33:30.874Z,71.79
2023-02-19T10:36:04.025Z,71.58
2023-02-19T10:38:45.892Z,71.64
2023-02-19T10:41:20.843Z,71.23
2023-02-19T10:44:08.119Z,71.35
2023-02-19T10:46:42.115Z,70.98
2023-02-19T10:49:32.832Z,71.03
2023-02-19T10:52:22.368Z,71.12
2023-02-19T10:55:10.177Z,70.62
2023-02-19T10:57:38.493Z,70.57
2023-02-19T11:00:15.771Z,70.49
2023-02-19T11:02:44.340Z,70.66
2023-02-19T11:05:14.892Z,70.82
2023-02-19T11:07:56.338Z,70.70
2023-02-19T11:10:39.856Z,70.28
2023-02-19T11:13:17.901Z,69.26
2023-02-19T11:15:51.717Z,69.20
2023-02-19T11:18:25.306Z,68.80
2023-02-19T11:20:54.530Z,67.97
2023-02-19T11:23:31.658Z,67.22
2023-02-19T11:26:06.452Z,67.41
2023-02-19T11:28:39.314Z,67.31
2023-02-19T11:31:19.947Z,67.19
2023-02-19T11:34:01.551Z,67.14
2023-02-19T11:36:33.722Z,67.49
2023-02-19T11:39:17.494Z,67.99
2023-02-19T11:42:14.180Z,68.46
2023-02-19T11:44:51.984Z,68.71
2023-02-19T11:48:00.349Z,68.80
2023-02-19T11:51:06.872Z,68.86
2023-02-19T11:53:39.326Z,69.07
2023-02-19T11:56:12.328Z,68.78
2023-02-19T11:59:06.100Z,68.97
2023-02-19T12:01:53.069Z,68.83
2023-02-19T12:05:02.018Z,69.00
2023-02-19T12:07:44.133Z,68.76
2023-02-19T12:10:23.599Z,68.48
2023-02-19T12:13:02.779Z,68.29
2023-02-19T12:16:04.218Z,68.33
2023-02-19T12:18:47.866Z,68.18
2023-02-19T12:21:51.683Z,68.01
2023-02-19T12:24:49.246Z,68.03
2023-02-19T12:27:46.583Z,67.71
2023-02-19T12:30:49.221Z,67.21
2023-02-19T12:33:55.938Z,66.48
2023-02-19T12:36:31.495Z,65.74
2023-02-19T12:39:14.840Z,65.24
2023-02-19T12:41:49.804Z,65.12
2023-02-19T12:44:45.190Z,65.11
2023-02-19T12:47:23.117Z,65.14
2023-02-19T12:50:04.117Z,65.59
2023-02-19T12:52:37.917Z,66.09
2023-02-19T12:55:24.220Z,66.43
2023-02-19T12:57:59.392Z,67.04
2023-02-19T13:00:39.877Z,67.26
2023-02-19T13:03:32.738Z,67.45
2023-02-19T13:06:15.972Z,67.55
2023-02-19T13:09:06.722Z,67.33
2023-02-19T13:11:48.235Z,67.25
2023-02-19T13:14:39.467Z,67.22
2023-02-19T13:17:28.005Z,66.48
2023-02-19T13:20:25.106Z,65.88
2023-02-19T13:23:19.334Z,65.16
2023-02-19T13:26:06.006Z,65.15
2023-02-19T13:29:13.619Z,64.76
2023-02-19T13:31:54.092Z,64.65
2023-02-19T13:34:40.464Z,64.99
2023-02-19T13:37:08.837Z,65.27
2023-02-19T13:39:37.161Z,65.06
2023-02-19T13:42:06.345Z,64.93
2023-02-19T13:44:34.714Z,64.91
2023-02-19T13:47:06.282Z,64.96
2023-02-19T13:49:41.174Z,65.06
2023-02-19T13:52:28.303Z,65.23
2023-02-19T13:55:57.080Z,65.44
2023-02-19T13:58:34.142Z,65.55
2023-02-19T14:01:05.107Z,65.49
2023-02-19T14:03:55.497Z,65.56
2023-02-19T14:06:24.405Z,65.46
2023-02-19T14:09:00.655Z,64.92
2023-02-19T14:11:41.891Z,64.72
2023-02-19T14:14:28.487Z,64.54
2023-02-19T14:17:29.402Z,64.05
2023-02-19T14:20:11.756Z,64.24
2023-02-19T14:22:52.121Z,64.17
2023-02-19T14:25:42.206Z,63.54
2023-02-19T14:28:12.740Z,63.64
2023-02-19T14:30:53.928Z,63.55
2023-02-19T14:33:28.793Z,63.65
2023-02-19T14:36:28.769Z,63.64
2023-02-19T14:39:04.919Z,63.78
2023-02-19T14:41:36.462Z,63.54
2023-02-19T14:44:05.010Z,63.57
2023-02-19T14:46:43.917Z,63.26
2023-02-19T14:49:36.487Z,63.14
2023-02-19T14:52:06.610Z,62.98
2023-02-19T14:54:42.075Z,62.94
2023-02-19T14:57:30.728Z,62.89
2023-02-19T15:00:01.692Z,62.84
2023-02-19T15:02:31.337Z,62.77
2023-02-19T15:04:59.657Z,62.78
2023-02-19T15:07:32.917Z,62.71
2023-02-19T15:10:05.135Z,62.66
2023-02-19T15:12:41.232Z,62.60
2023-02-19T15:15:23.456Z,62.78
2023-02-19T15:17:52.523Z,62.80
2023-02-19T15:20:23.227Z,62.65
2023-02-19T15:22:54.116Z,62.72
2023-02-19T15:25:23.603Z,62.85
2023-02-19T15:27:52.283Z,62.78
2023-02-19T15:30:24.402Z,62.81
2023-02-19T15:33:02.285Z,62.90
2023-02-19T15:35:31.949Z,63.07
2023-02-19T15:38:00.446Z,63.20
2023-02-19T15:40:30.724Z,63.33
2023-02-19T15:42:59.500Z,63.38
2023-02-19T15:45:41.456Z,63.36
2023-02-19T15:48:16.514Z,63.44
2023-02-19T15:50:53.474Z,63.59
2023-02-19T15:53:24.876Z,63.77
2023-02-19T15:55:59.108Z,63.90
2023-02-19T15:58:43.490Z,64.04
2023-02-19T16:01:28.232Z,64.16
2023-02-19T16:03:57.352Z,64.41
2023-02-19T16:06:26.057Z,64.52
2023-02-19T16:09:02.359Z,64.62
2023-02-19T16:11:43.521Z,64.75
2023-02-19T16:14:22.990Z,64.96
2023-02-19T16:16:54.333Z,65.02
2023-02-19T16:19:28.589Z,65.15
2023-02-19T16:21:57.120Z,65.12
2023-02-19T16:24:27.857Z,65.25
2023-02-19T16:26:56.919Z,65.26
2023-02-19T16:29:32.636Z,65.27
2023-02-19T16:32:15.538Z,65.40
2023-02-19T16:34:47.058Z,65.36
2023-02-19T16:37:30.271Z,65.36
2023-02-19T16:40:11.477Z,65.50
2023-02-19T16:42:48.809Z,65.44
2023-02-19T16:45:17.500Z,65.40
2023-02-19T16:47:48.476Z,65.16
2023-02-19T16:50:20.127Z,65.16
2023-02-19T16:52:55.662Z,64.99
2023-02-19T16:55:23.953Z,64.89
2023-02-19T16:57:52.360Z,64.34
2023-02-19T17:00:21.751Z,64.69
2023-02-19T17:02:52.293Z,64.58
2023-02-19T17:05:20.737Z,64.48
2023-02-19T17:07:49.485Z,64.33
2023-02-19T17:10:27.497Z,64.39
2023-02-19T17:12:55.821Z,64.45
2023-02-19T17:15:25.359Z,64.53
2023-02-19T17:17:53.644Z,64.61
2023-02-19T17:20:28.765Z,64.59
2023-02-19T17:22:57.443Z,64.74
2023-02-19T17:25:25.508Z,64.82
2023-02-19T17:27:54.050Z,64.94
2023-02-19T17:30:30.577Z,64.82
2023-02-19T17:32:59.237Z,65.03
2023-02-19T17:35:27.881Z,65.00
2023-02-19T17:37:57.397Z,65.05
2023-02-19T17:40:33.075Z,65.15
2023-02-19T17:43:02.448Z,65.16
2023-02-19T17:45:33.872Z,65.10
2023-02-19T17:48:02.128Z,65.19
2023-02-19T17:50:32.724Z,65.18
2023-02-19T17:53:01.280Z,65.37
2023-02-19T17:55:29.873Z,65.44
2023-02-19T17:57:58.020Z,65.51
2023-02-19T18:00:27.875Z,65.48
2023-02-19T18:02:57.877Z,65.26
2023-02-19T18:05:26.465Z,65.33
2023-02-19T18:07:55.380Z,65.17
2023-02-19T18:10:24.499Z,65.14
2023-02-19T18:12:52.714Z,65.16
2023-02-19T18:15:22.607Z,65.38
2023-02-19T18:17:50.715Z,65.80
2023-02-19T18:20:28.972Z,67.22
2023-02-19T18:22:57.628Z,68.08
2023-02-19T18:25:25.979Z,68.71
2023-02-19T18:27:55.266Z,69.26
2023-02-19T18:30:23.895Z,69.73
2023-02-19T18:32:52.620Z,70.14
2023-02-19T18:35:21.121Z,70.25
2023-02-19T18:37:51.488Z,70.27
2023-02-19T18:40:26.073Z,70.31
2023-02-19T18:42:55.879Z,70.45
2023-02-19T18:45:24.706Z,70.67
2023-02-19T18:47:53.348Z,71.28
2023-02-19T18:50:23.745Z,71.49
2023-02-19T18:52:51.859Z,71.89
2023-02-19T18:55:21.408Z,72.49
2023-02-19T18:57:49.855Z,73.01
2023-02-19T19:00:21.419Z,73.62
2023-02-19T19:02:50.529Z,74.14
2023-02-19T19:05:23.293Z,74.54
2023-02-19T19:07:54.023Z,74.86
2023-02-19T19:10:24.801Z,75.25
2023-02-19T19:12:54.544Z,75.53
2023-02-19T19:15:22.770Z,75.66
2023-02-19T19:17:51.913Z,75.86
2023-02-19T19:20:21.105Z,76.49
2023-02-19T19:22:50.724Z,76.85
2023-02-19T19:25:20.383Z,77.20
2023-02-19T19:27:50.737Z,78.10
2023-02-19T19:30:20.275Z,78.60
2023-02-19T19:32:50.388Z,78.90
2023-02-19T19:35:20.398Z,79.72
2023-02-19T19:37:49.316Z,80.16
2023-02-19T19:40:18.127Z,80.70
2023-02-19T19:42:46.562Z,80.73
2023-02-19T19:45:15.498Z,80.80
2023-02-19T19:47:43.916Z,80.81
2023-02-19T19:50:14.640Z,80.94
2023-02-19T19:52:43.440Z,81.00
2023-02-19T19:55:11.712Z,81.33
2023-02-19T19:57:41.122Z,81.70
2023-02-19T20:00:16.205Z,81.96
2023-02-19T20:02:47.634Z,82.31
2023-02-19T20:05:18.166Z,82.56
2023-02-19T20:07:46.571Z,83.16
2023-02-19T20:10:22.119Z,83.44
2023-02-19T20:12:51.117Z,83.75
2023-02-19T20:15:22.308Z,84.19
2023-02-19T20:17:51.320Z,84.48
2023-02-19T20:20:19.798Z,84.80
2023-02-19T20:22:52.073Z,85.22
2023-02-19T20:25:23.573Z,85.60
2023-02-19T20:27:53.473Z,85.89
2023-02-19T20:30:23.721Z,86.05
2023-02-19T20:32:51.993Z,86.07
2023-02-19T20:35:21.518Z,86.27
2023-02-19T20:37:49.915Z,86.43
2023-02-19T20:40:18.365Z,86.56
2023-02-19T20:42:46.986Z,86.43
2023-02-19T20:45:17.161Z,86.51
2023-02-19T20:47:46.236Z,86.53
2023-02-19T20:50:19.593Z,86.62
2023-02-19T20:52:52.704Z,86.24
2023-02-19T20:55:20.843Z,86.32
2023-02-19T20:57:49.665Z,86.26
2023-02-19T21:00:19.166Z,86.17
2023-02-19T21:02:48.123Z,85.82
2023-02-19T21:05:17.698Z,85.55
2023-02-19T21:07:48.253Z,85.33
2023-02-19T21:10:16.723Z,84.80
2023-02-19T21:12:48.169Z,84.26
2023-02-19T21:15:16.358Z,83.18
2023-02-19T21:17:46.525Z,82.14
2023-02-19T21:20:15.568Z,81.82
2023-02-19T21:22:44.906Z,81.24
2023-02-19T21:25:13.749Z,80.83
2023-02-19T21:27:43.833Z,80.42
2023-02-19T21:30:12.879Z,80.22
2023-02-19T21:32:41.437Z,79.91
2023-02-19T21:35:10.167Z,79.60
2023-02-19T21:37:42.329Z,79.45
2023-02-19T21:40:12.483Z,79.27
2023-02-19T21:42:41.269Z,79.39
2023-02-19T21:45:10.350Z,79.21
2023-02-19T21:47:38.853Z,79.23
2023-02-19T21:50:07.753Z,79.21
2023-02-19T21:52:42.340Z,79.21
2023-02-19T21:55:12.086Z,78.92
2023-02-19T21:57:41.797Z,78.83
2023-02-19T22:00:10.848Z,78.86
2023-02-19T22:02:38.949Z,78.67
2023-02-19T22:05:07.255Z,78.63
2023-02-19T22:07:35.416Z,78.87
2023-02-19T22:10:05.678Z,78.81
2023-02-19T22:12:34.599Z,78.97
2023-02-19T22:15:03.253Z,78.81
2023-02-19T22:17:31.803Z,78.92
2023-02-19T22:20:00.466Z,78.96
2023-02-19T22:22:30.772Z,79.13
2023-02-19T22:24:59.579Z,79.37
2023-02-19T22:27:29.391Z,79.40
2023-02-19T22:29:58.336Z,79.88
2023-02-19T22:32:26.752Z,79.60
2023-02-19T22:34:55.126Z,79.93
2023-02-19T22:37:25.285Z,79.94
2023-02-19T22:39:53.397Z,79.69
2023-02-19T22:42:21.765Z,79.74
2023-02-19T22:44:50.315Z,79.68
2023-02-19T22:47:19.365Z,79.67
2023-02-19T22:49:47.670Z,79.76
2023-02-19T22:52:18.525Z,79.90
2023-02-19T22:54:46.891Z,80.04
2023-02-19T22:57:14.902Z,80.24
2023-02-19T22:59:44.541Z,79.97
2023-02-19T23:02:12.575Z,79.69
2023-02-19T23:04:43.235Z,79.74
2023-02-19T23:07:11.546Z,79.72
2023-02-19T23:09:39.699Z,79.38
2023-02-19T23:12:09.526Z,79.51
2023-02-19T23:14:39.423Z,79.64
2023-02-19T23:17:08.511Z,79.69
2023-02-19T23:19:39.205Z,79.36
2023-02-19T23:22:07.962Z,79.04
2023-02-19T23:24:36.232Z,78.94
2023-02-19T23:27:04.727Z,78.84
2023-02-19T23:29:32.816Z,78.69
2023-02-19T23:32:01.320Z,78.52
2023-02-19T23:34:29.915Z,78.27
2023-02-19T23:37:02.393Z,78.40
2023-02-19T23:39:30.474Z,78.01
2023-02-19T23:42:00.085Z,77.64
2023-02-19T23:44:28.162Z,77.31
2023-02-19T23:46:56.387Z,77.35
2023-02-19T23:49:26.035Z,77.20
2023-02-19T23:51:54.159Z,77.04
2023-02-19T23:54:22.100Z,77.10
2023-02-19T23:56:50.201Z,76.88
2023-02-19T23:59:18.255Z,76.86
